首页
METAR-TAF:

METAR-TAF

机场 :

蒙特利尔皮埃尔·埃利奥特·特鲁多国际机场

蒙特利尔特鲁多, 魁北克, 加拿大

纬度: 45-28N, 经度: 073-45W, 海拔: 31米

当前天气观测

该预报发布于39分钟前的11:00 UTC
风速2节,风向多变
温度 1°C
湿度 100%
气压 999 hPa
能見度: 8.0公里
散云层高于400英尺
多云层高于900英尺
阴天层高于1400英尺
小雨

METAR: CYUL 241100Z VRB02KT 5SM -RA SCT004 BKN009 OVC014 01/01 A2951 RMK SF3SF3SC2 SLP995

时间: 06:39 (11:39 UTC)

预报

该预报发布于3小时和1分钟前的08:38 UTC
预报有效从24日的 09点(UTC)到 25日的 06点(UTC)
风速5节,风向南转南东
能見度: 9.7公里
散云层高于800英尺
阴天层高于2500英尺
小雨, 轻雾
短暂存在
从 24日的 09点(UTC)到 24日的 14点(UTC)
能見度: 4.8公里
多云层高于800英尺
阴天层高于2000英尺
小雨, 轻雾
从 24日的 1400点(UTC)
风速3节,风向多变
能見度: 3.2公里
阴天层高于500英尺
小雨, 轻雾
几率 30%
从 24日的 14点(UTC)到 24日的 16点(UTC)
能見度: 0.8公里
阴天层高于300英尺
小雨, 雾
成为
从 24日的 16点(UTC)到 24日的 18点(UTC)
风速10节,风向西转西北
从 24日的 1800点(UTC)
风速10节,风向西转西北
能見度: 3.2公里
散云层高于700英尺
阴天层高于1500英尺
小雨, 轻雾
从 24日的 2200点(UTC)
风速12节,风向西
能見度: 3.2公里
多云层高于700英尺
阴天层高于2500英尺
小雨, 雪
成为
从 24日的 22点(UTC)到 24日的 23点(UTC)
风速15节,风向西,有时为25节阵风
从 25日的 0100点(UTC)
风速15节,风向西
能見度: 10公里
散云层高于1200英尺
多云层高于2500英尺

TAF: CYUL 240838Z 2409/2506 16005KT 6SM -RA BR SCT008 OVC025 TEMPO 2409/2414 3SM -RA BR BKN008 OVC020 FM241400 VRB03KT 2SM -RA BR OVC005 PROB30 2414/2416 1/2SM -RA FG OVC003 BECMG 2416/2418 29010KT FM241800 29010KT 2SM -RA BR SCT007 OVC015 FM242200 27012KT 2SM -RASN BKN007 OVC025 BECMG 2422/2423 27015G25KT FM250100 26015KT P6SM SCT012 BKN025 RMK NXT FCST BY 241200Z

超过4000个机场的气象观测和天气预报(METAR&TAF报告)。

可查询的气象台以黄色和红色小点在地图上表示。

将鼠标移到小点上方,可查看气象台名称。

然后点击查看天气观测和预报。

如需切换地图:点击带黑十字的绿色按钮放大地图;点击带横线的绿色按钮缩小地图;或者点击绿色箭头查看邻近地区的地图。


METAR-TAF: